Time;durP1;ratioP1;P1;durP2;ratioP2;P2;SDS_P1;SDS_P2;PMS_P1;PMS_P2;Temp;Humidity;BMP_temperature;BMP_pressure;BME280_temperature;BME280_humidity;BME280_pressure;Samples;Min_cycle;Max_cycle;Signal;HPM_P1;HPM_P2
2021/12/20 00:00:03;;;;;;;32.67;15.63;;;;;;;3.85;100.00;100287.50;4951299;28;20042;-61
2021/12/20 00:02:28;;;;;;;28.75;16.08;;;;;;;3.84;100.00;100275.22;4946667;28;20031;-61
2021/12/20 00:04:53;;;;;;;31.15;17.83;;;;;;;3.90;100.00;100285.16;4950511;28;20053;-63
2021/12/20 00:07:19;;;;;;;30.90;15.60;;;;;;;3.91;100.00;100275.38;4951628;28;20525;-62
2021/12/20 00:09:45;;;;;;;32.20;17.63;;;;;;;3.91;100.00;100278.84;4950080;28;20023;-63
2021/12/20 00:12:10;;;;;;;29.92;18.40;;;;;;;3.89;100.00;100288.78;4954201;28;20520;-61
2021/12/20 00:14:36;;;;;;;33.15;17.10;;;;;;;3.88;100.00;100280.00;4946854;28;20114;-61
2021/12/20 00:17:01;;;;;;;30.83;17.98;;;;;;;3.94;100.00;100294.41;4947479;28;20053;-61
2021/12/20 00:19:27;;;;;;;30.90;18.27;;;;;;;3.99;100.00;100289.41;4949338;28;20747;-61
2021/12/20 00:21:52;;;;;;;29.13;17.30;;;;;;;3.90;100.00;100269.25;4949478;28;20039;-62
2021/12/20 00:24:19;;;;;;;32.85;17.77;;;;;;;3.93;100.00;100274.19;4943962;28;20351;-61
2021/12/20 00:26:44;;;;;;;28.95;16.48;;;;;;;3.99;100.00;100281.44;4952458;28;20039;-61
2021/12/20 00:29:10;;;;;;;33.15;17.05;;;;;;;4.05;100.00;100286.06;4966233;28;20027;-61
2021/12/20 00:31:35;;;;;;;32.65;16.95;;;;;;;4.05;100.00;100285.25;4949855;28;20793;-61
2021/12/20 00:34:00;;;;;;;32.63;16.67;;;;;;;3.98;100.00;100276.31;4954384;28;20038;-61
2021/12/20 00:36:29;;;;;;;28.33;16.35;;;;;;;4.06;100.00;100263.84;4950077;28;20047;-61
2021/12/20 00:41:38;;;;;;;29.90;15.15;;;;;;;4.09;100.00;100273.28;4952383;28;20120;-62
2021/12/20 00:44:04;;;;;;;27.73;15.57;;;;;;;4.20;100.00;100264.94;4951752;28;20602;-61
2021/12/20 00:46:29;;;;;;;28.08;15.20;;;;;;;4.10;100.00;100274.94;4950973;28;20740;-62
2021/12/20 00:48:55;;;;;;;28.92;15.90;;;;;;;4.05;100.00;100266.69;4955858;28;20031;-61
2021/12/20 00:51:20;;;;;;;29.77;16.05;;;;;;;4.01;100.00;100265.38;4952845;28;20055;-61
2021/12/20 00:53:46;;;;;;;29.42;14.68;;;;;;;3.97;100.00;100270.22;4949155;28;20101;-61
2021/12/20 00:56:11;;;;;;;30.98;16.23;;;;;;;4.05;100.00;100272.81;4957808;28;20046;-61
2021/12/20 00:58:36;;;;;;;31.25;15.80;;;;;;;3.99;100.00;100273.47;4956242;28;20027;-61
2021/12/20 01:01:03;;;;;;;31.42;15.68;;;;;;;4.03;100.00;100279.28;4943694;28;20043;-61
2021/12/20 01:03:30;;;;;;;30.15;15.10;;;;;;;4.02;100.00;100273.16;4955956;28;20037;-61
2021/12/20 01:05:56;;;;;;;33.05;16.55;;;;;;;4.10;100.00;100267.81;4949591;28;20051;-61
2021/12/20 01:08:22;;;;;;;30.17;16.58;;;;;;;4.10;100.00;100261.69;4949094;28;20073;-61
2021/12/20 01:10:53;;;;;;;29.95;16.50;;;;;;;4.11;100.00;100266.78;4947532;28;20047;-61
2021/12/20 01:13:21;;;;;;;29.25;15.40;;;;;;;4.14;100.00;100264.78;4954144;28;20035;-61
2021/12/20 01:15:50;;;;;;;28.42;15.73;;;;;;;4.07;100.00;100262.84;4944817;28;20523;-61
2021/12/20 01:18:18;;;;;;;30.75;15.80;;;;;;;4.09;100.00;100267.97;4946083;28;20073;-61
2021/12/20 01:20:43;;;;;;;28.67;15.32;;;;;;;4.06;100.00;100263.84;4950225;28;20104;-61
2021/12/20 01:23:09;;;;;;;30.15;15.48;;;;;;;4.09;100.00;100262.66;4948570;28;20581;-61
2021/12/20 01:25:35;;;;;;;36.47;17.27;;;;;;;4.04;100.00;100260.56;4951022;28;20539;-62
2021/12/20 01:28:00;;;;;;;30.83;15.38;;;;;;;4.07;100.00;100267.34;4950975;28;20041;-61
2021/12/20 01:30:26;;;;;;;33.92;17.20;;;;;;;4.01;100.00;100263.53;4952133;28;20047;-61
2021/12/20 01:32:51;;;;;;;32.35;16.50;;;;;;;4.01;100.00;100252.91;4945359;28;20039;-61
2021/12/20 01:35:17;;;;;;;35.83;17.63;;;;;;;4.01;100.00;100274.13;4944178;28;20031;-61
2021/12/20 01:37:43;;;;;;;36.03;17.52;;;;;;;4.00;100.00;100275.16;4948902;28;20038;-62
2021/12/20 01:40:10;;;;;;;30.33;17.85;;;;;;;4.00;100.00;100277.81;4944207;28;20083;-61
2021/12/20 01:42:36;;;;;;;30.50;16.77;;;;;;;4.00;100.00;100274.34;4955220;28;20034;-60
2021/12/20 01:45:05;;;;;;;39.33;18.50;;;;;;;4.03;100.00;100274.81;4955092;28;20186;-61
2021/12/20 01:47:35;;;;;;;34.60;17.77;;;;;;;4.06;100.00;100269.13;4947004;28;20032;-60
2021/12/20 01:50:09;;;;;;;34.20;18.87;;;;;;;3.95;100.00;100268.72;4947032;28;20031;-61
2021/12/20 01:52:44;;;;;;;36.13;17.50;;;;;;;3.98;100.00;100269.19;4948165;28;20039;-61
2021/12/20 01:55:16;;;;;;;32.13;17.02;;;;;;;3.88;100.00;100261.44;4944819;28;20035;-62
2021/12/20 01:57:41;;;;;;;39.30;17.33;;;;;;;3.96;100.00;100263.22;4957305;28;20039;-60
2021/12/20 02:00:10;;;;;;;30.77;16.42;;;;;;;3.98;100.00;100258.59;4950306;28;20081;-61
2021/12/20 02:02:35;;;;;;;34.78;17.08;;;;;;;3.95;100.00;100253.63;4949546;28;20634;-62
2021/12/20 02:05:12;;;;;;;33.70;17.20;;;;;;;3.89;100.00;100238.41;4947701;28;20091;-61
2021/12/20 02:07:50;;;;;;;32.70;17.63;;;;;;;3.90;100.00;100248.03;4948962;28;20038;-61
2021/12/20 02:10:17;;;;;;;33.78;16.77;;;;;;;3.84;100.00;100241.59;4951364;28;20026;-60
2021/12/20 02:12:42;;;;;;;29.50;15.88;;;;;;;3.88;100.00;100252.66;4945424;28;20126;-61
2021/12/20 02:15:08;;;;;;;28.13;15.32;;;;;;;3.89;100.00;100249.84;4962276;28;20049;-60
2021/12/20 02:17:33;;;;;;;32.88;16.42;;;;;;;3.98;99.56;100249.81;4948999;28;20059;-60
2021/12/20 02:20:00;;;;;;;31.80;17.10;;;;;;;3.98;99.50;100255.09;4949989;28;20038;-60
2021/12/20 02:22:25;;;;;;;29.92;15.98;;;;;;;3.93;100.00;100265.41;4950283;28;20051;-60
2021/12/20 02:24:50;;;;;;;29.35;14.10;;;;;;;3.97;99.26;100253.44;4960632;28;20046;-61
2021/12/20 02:27:16;;;;;;;32.17;15.80;;;;;;;3.97;99.43;100254.28;4960003;28;20050;-61
2021/12/20 02:30:00;;;;;;;30.40;16.17;;;;;;;3.99;100.00;100249.59;4953164;28;20134;-61
2021/12/20 02:37:58;;;;;;;28.98;15.05;;;;;;;3.93;100.00;100262.75;4948004;28;20031;-61
2021/12/20 02:40:23;;;;;;;31.92;15.85;;;;;;;3.91;99.34;100262.94;4950431;28;20446;-61
2021/12/20 02:42:51;;;;;;;28.17;15.50;;;;;;;3.89;99.68;100262.28;4958741;28;20497;-61
2021/12/20 02:45:17;;;;;;;26.33;15.25;;;;;;;3.85;99.70;100261.81;4961038;28;20084;-61
2021/12/20 02:47:44;;;;;;;28.10;14.93;;;;;;;3.83;99.66;100258.50;4955134;28;20031;-61
2021/12/20 02:50:10;;;;;;;29.58;15.45;;;;;;;3.84;99.37;100261.97;4949596;28;20051;-61
2021/12/20 02:52:35;;;;;;;35.47;17.67;;;;;;;3.83;99.39;100257.66;4955881;28;20597;-61
2021/12/20 02:55:01;;;;;;;30.83;15.68;;;;;;;3.79;100.00;100261.66;4960946;28;20078;-61
2021/12/20 02:57:26;;;;;;;31.08;14.52;;;;;;;3.83;100.00;100257.66;4953502;28;20031;-61
2021/12/20 02:59:52;;;;;;;35.40;15.57;;;;;;;3.79;99.96;100251.03;4959589;28;20038;-61
2021/12/20 03:02:18;;;;;;;30.17;15.02;;;;;;;3.84;99.68;100244.25;4951658;28;20039;-61
2021/12/20 03:04:44;;;;;;;31.88;15.52;;;;;;;3.83;99.40;100250.53;4955117;28;20020;-61
2021/12/20 03:07:12;;;;;;;36.33;16.17;;;;;;;3.70;100.00;100252.09;4952455;28;20050;-61
2021/12/20 03:09:40;;;;;;;37.78;17.75;;;;;;;3.68;100.00;100254.91;4951014;28;20041;-61
2021/12/20 03:12:07;;;;;;;38.05;18.33;;;;;;;3.75;100.00;100255.06;4956225;28;20083;-61
2021/12/20 03:14:37;;;;;;;34.63;17.67;;;;;;;3.76;100.00;100256.69;4954874;28;20031;-62
2021/12/20 03:17:03;;;;;;;36.80;16.80;;;;;;;3.72;100.00;100256.25;4939312;29;20039;-61
2021/12/20 03:19:29;;;;;;;28.77;15.63;;;;;;;3.79;100.00;100251.03;4949944;28;20039;-62
2021/12/20 03:21:55;;;;;;;35.55;15.63;;;;;;;3.74;100.00;100253.41;4952869;28;20079;-61
2021/12/20 03:24:20;;;;;;;27.45;14.52;;;;;;;3.77;100.00;100255.69;4952693;28;20034;-62
2021/12/20 03:26:45;;;;;;;34.47;14.73;;;;;;;3.80;100.00;100258.03;4947537;28;20043;-63
2021/12/20 03:29:11;;;;;;;32.28;15.40;;;;;;;3.79;100.00;100256.34;4950846;28;20045;-62
2021/12/20 03:31:36;;;;;;;32.25;14.52;;;;;;;3.77;100.00;100255.69;4950814;28;20047;-62
2021/12/20 03:34:02;;;;;;;33.88;14.75;;;;;;;3.78;100.00;100252.88;4946246;28;20042;-62
2021/12/20 03:36:27;;;;;;;32.45;14.63;;;;;;;3.80;100.00;100263.31;4949669;28;20051;-62
2021/12/20 03:38:53;;;;;;;31.65;14.50;;;;;;;3.72;100.00;100255.38;4951063;28;20038;-62
2021/12/20 03:41:18;;;;;;;32.92;15.27;;;;;;;3.76;100.00;100262.00;4953759;28;20039;-62
2021/12/20 03:43:44;;;;;;;34.08;17.23;;;;;;;3.75;100.00;100255.06;4950387;28;20665;-62
2021/12/20 03:46:10;;;;;;;32.20;15.18;;;;;;;3.83;100.00;100260.31;4952235;28;20046;-62
2021/12/20 03:48:36;;;;;;;29.67;14.52;;;;;;;3.77;100.00;100258.34;4958484;28;20034;-62
2021/12/20 03:51:02;;;;;;;29.17;13.93;;;;;;;3.76;100.00;100257.53;4952583;28;20916;-62
2021/12/20 03:53:28;;;;;;;34.85;14.48;;;;;;;3.75;100.00;100257.72;4949824;28;20552;-62
2021/12/20 03:55:53;;;;;;;26.70;14.27;;;;;;;3.76;100.00;100262.81;4957235;28;20077;-62
2021/12/20 03:58:19;;;;;;;24.80;13.25;;;;;;;3.91;100.00;100265.56;4949732;28;20474;-62
2021/12/20 04:00:45;;;;;;;28.45;14.13;;;;;;;3.76;100.00;100262.81;4955962;28;20043;-62
2021/12/20 04:03:13;;;;;;;30.70;14.20;;;;;;;3.75;100.00;100255.06;4955855;28;20043;-62
2021/12/20 04:05:39;;;;;;;27.02;14.13;;;;;;;3.69;100.00;100259.22;4949285;28;20050;-61
2021/12/20 04:08:05;;;;;;;34.22;13.88;;;;;;;3.71;100.00;100251.09;4956331;28;20027;-60
2021/12/20 04:10:30;;;;;;;33.95;14.35;;;;;;;3.72;100.00;100250.09;4950144;28;20047;-61
2021/12/20 04:12:55;;;;;;;26.77;13.40;;;;;;;3.67;100.00;100259.41;4948840;28;20027;-61
2021/12/20 04:15:21;;;;;;;31.73;13.40;;;;;;;3.68;100.00;100254.91;4947485;28;20050;-61
2021/12/20 04:17:47;;;;;;;30.63;14.25;;;;;;;3.65;100.00;100258.75;4949677;28;20134;-62
2021/12/20 04:20:13;;;;;;;29.40;13.68;;;;;;;3.64;100.00;100249.16;4944413;28;20027;-62
2021/12/20 04:22:38;;;;;;;29.52;14.45;;;;;;;3.71;100.00;100248.44;4951705;28;20042;-61
2021/12/20 04:25:04;;;;;;;26.42;14.63;;;;;;;3.74;100.00;100248.09;4956750;28;20469;-62
2021/12/20 04:27:30;;;;;;;29.77;14.48;;;;;;;3.66;100.00;100247.13;4950365;28;20027;-62
2021/12/20 04:29:55;;;;;;;29.52;14.38;;;;;;;3.63;100.00;100242.19;4954645;28;20506;-61
2021/12/20 04:32:21;;;;;;;27.90;13.75;;;;;;;3.67;100.00;100242.69;4950187;28;20043;-61
2021/12/20 04:34:46;;;;;;;29.42;13.98;;;;;;;3.58;100.00;100249.81;4950713;28;20031;-62
2021/12/20 04:37:12;;;;;;;29.63;13.57;;;;;;;3.66;100.00;100241.00;4951645;28;20039;-62
2021/12/20 04:39:37;;;;;;;36.22;15.10;;;;;;;3.56;100.00;100246.50;4947903;28;20056;-62
2021/12/20 04:42:03;;;;;;;35.13;14.52;;;;;;;3.52;100.00;100254.97;4952710;28;20050;-61
2021/12/20 04:44:29;;;;;;;32.53;14.00;;;;;;;3.51;100.00;100248.84;4955669;28;20035;-62
2021/12/20 04:46:54;;;;;;;29.55;13.93;;;;;;;3.57;100.00;100242.88;4953291;28;20064;-62
2021/12/20 04:49:19;;;;;;;30.35;12.10;;;;;;;3.54;98.64;100243.19;4934909;28;20070;-61
2021/12/20 04:51:45;;;;;;;26.98;11.35;;;;;;;3.64;95.28;100243.84;4952164;28;20508;-61
2021/12/20 04:54:10;;;;;;;27.83;10.27;;;;;;;3.58;94.03;100246.34;4954588;28;20239;-61
2021/12/20 04:56:36;;;;;;;24.85;7.05;;;;;;;3.65;86.74;100240.19;4950516;28;20417;-61
2021/12/20 04:59:01;;;;;;;20.40;6.95;;;;;;;3.76;86.49;100246.09;4952386;28;20525;-61
2021/12/20 05:01:27;;;;;;;17.60;7.05;;;;;;;3.75;87.84;100250.59;4945635;28;20043;-61
2021/12/20 05:03:52;;;;;;;21.17;7.50;;;;;;;3.70;88.87;100252.09;4950652;28;20049;-61
2021/12/20 05:06:18;;;;;;;21.90;7.85;;;;;;;3.65;89.18;100239.38;4943069;28;20098;-61
2021/12/20 05:08:51;;;;;;;23.70;7.22;;;;;;;3.70;87.39;100252.09;4949043;28;20039;-62
2021/12/20 05:11:17;;;;;;;27.50;7.57;;;;;;;3.67;87.99;100250.63;4948781;28;20051;-61
2021/12/20 05:13:42;;;;;;;22.55;8.02;;;;;;;3.75;88.25;100255.88;4953836;28;20041;-62
2021/12/20 05:16:08;;;;;;;36.38;14.43;;;;;;;3.74;91.06;100248.91;4949740;28;20043;-60
2021/12/20 05:18:33;;;;;;;27.85;12.63;;;;;;;3.65;90.23;100245.47;4953172;28;20774;-60
2021/12/20 05:20:59;;;;;;;22.65;9.27;;;;;;;3.59;91.07;100251.47;4946656;28;20592;-60
2021/12/20 05:23:24;;;;;;;16.45;6.82;;;;;;;3.64;86.83;100249.16;4946840;28;20118;-60
2021/12/20 05:25:49;;;;;;;20.77;6.85;;;;;;;3.78;85.54;100250.22;4951113;28;20058;-60
2021/12/20 05:28:15;;;;;;;19.80;7.13;;;;;;;3.68;85.22;100249.63;4945734;28;20097;-61
2021/12/20 05:30:40;;;;;;;24.58;6.85;;;;;;;3.64;84.52;100250.94;4947206;28;20546;-61
2021/12/20 05:33:06;;;;;;;24.20;6.45;;;;;;;3.65;83.72;100250.78;4948936;28;20113;-62
2021/12/20 05:35:31;;;;;;;25.13;7.30;;;;;;;3.66;84.87;100260.38;4949153;28;20059;-61
2021/12/20 05:37:58;;;;;;;22.17;6.60;;;;;;;3.83;81.61;100253.19;4946295;28;20336;-62
2021/12/20 05:40:24;;;;;;;21.15;7.65;;;;;;;3.67;81.92;100254.09;4948780;28;20125;-62
2021/12/20 05:42:49;;;;;;;26.33;8.63;;;;;;;3.68;81.51;100258.38;4943288;28;20035;-62
2021/12/20 05:45:15;;;;;;;31.58;10.73;;;;;;;3.69;82.58;100251.25;4957101;28;20038;-62
2021/12/20 05:47:40;;;;;;;31.13;11.32;;;;;;;3.68;81.72;100254.91;4956896;28;20035;-62
2021/12/20 05:50:07;;;;;;;23.25;7.68;;;;;;;3.64;81.98;100264.22;4948235;28;20039;-62
2021/12/20 05:52:32;;;;;;;25.90;7.55;;;;;;;3.69;81.46;100261.88;4956307;28;20031;-62
2021/12/20 05:54:57;;;;;;;22.50;7.25;;;;;;;3.63;82.54;100258.09;4952611;28;20672;-62
2021/12/20 05:57:23;;;;;;;19.02;6.53;;;;;;;3.58;83.03;100265.72;4951832;28;20479;-61
2021/12/20 05:59:48;;;;;;;22.23;7.50;;;;;;;3.62;84.13;100269.69;4951720;28;20469;-62
2021/12/20 06:02:14;;;;;;;25.67;7.00;;;;;;;3.68;84.98;100274.31;4951328;28;20517;-62
2021/12/20 06:04:39;;;;;;;28.10;8.48;;;;;;;3.58;86.55;100271.03;4949042;28;20146;-62
2021/12/20 06:07:05;;;;;;;25.50;9.15;;;;;;;3.53;86.80;100268.06;4947166;28;20035;-62
2021/12/20 06:09:31;;;;;;;26.67;8.35;;;;;;;3.55;86.97;100270.56;4954236;28;20038;-62
2021/12/20 06:11:59;;;;;;;32.42;9.02;;;;;;;3.49;87.10;100274.69;4949736;28;20058;-61
2021/12/20 06:14:26;;;;;;;32.92;10.13;;;;;;;3.50;88.06;100278.19;4952794;28;20037;-62
2021/12/20 06:16:51;;;;;;;27.05;9.38;;;;;;;3.51;89.10;100283.31;4949229;28;20075;-62
2021/12/20 06:19:18;;;;;;;32.95;11.27;;;;;;;3.51;90.20;100280.66;4957336;28;20106;-61
2021/12/20 06:21:43;;;;;;;29.58;11.32;;;;;;;3.44;90.46;100284.97;4945694;28;20471;-62
2021/12/20 06:24:09;;;;;;;23.70;10.13;;;;;;;3.41;90.47;100290.63;4951970;28;20034;-61
2021/12/20 06:26:34;;;;;;;32.13;11.30;;;;;;;3.44;92.01;100290.28;4953025;28;20053;-62
2021/12/20 06:28:59;;;;;;;32.72;11.45;;;;;;;3.41;90.69;100295.94;4948918;28;20457;-62
2021/12/20 06:31:25;;;;;;;31.25;10.23;;;;;;;3.49;91.48;100290.59;4955385;28;20050;-62
2021/12/20 06:33:50;;;;;;;28.33;10.98;;;;;;;3.48;90.22;100307.50;4954337;28;20035;-62
2021/12/20 06:36:18;;;;;;;31.10;10.07;;;;;;;3.60;90.73;100305.34;4952973;28;20038;-61
2021/12/20 06:38:46;;;;;;;32.35;11.43;;;;;;;3.47;90.62;100305.88;4949855;28;20045;-62
2021/12/20 06:41:11;;;;;;;30.80;11.30;;;;;;;3.47;91.93;100303.22;4958144;28;20062;-62
2021/12/20 06:43:37;;;;;;;24.40;10.75;;;;;;;3.39;90.59;100305.88;4949315;28;20035;-62
2021/12/20 06:46:02;;;;;;;33.90;10.30;;;;;;;3.50;88.72;100310.81;4946418;28;20450;-62
2021/12/20 06:48:28;;;;;;;28.70;9.55;;;;;;;3.51;88.66;100312.47;4951122;28;20038;-62
2021/12/20 06:50:53;;;;;;;29.77;9.75;;;;;;;3.43;87.84;100309.84;4955997;28;20039;-61
2021/12/20 06:53:19;;;;;;;26.00;9.10;;;;;;;3.40;88.44;100315.50;4951584;28;20031;-62
2021/12/20 06:55:44;;;;;;;30.15;10.43;;;;;;;3.40;89.32;100316.31;4951222;28;20043;-62
2021/12/20 06:58:10;;;;;;;22.98;9.25;;;;;;;3.62;87.48;100321.88;4951084;28;20046;-62
2021/12/20 07:00:35;;;;;;;30.73;10.98;;;;;;;3.51;89.33;100325.72;4950344;28;20571;-62
2021/12/20 07:03:01;;;;;;;35.10;11.27;;;;;;;3.45;89.14;100318.47;4951149;28;20069;-61
2021/12/20 07:05:26;;;;;;;31.35;10.25;;;;;;;3.46;88.92;100315.63;4954521;28;20050;-62
2021/12/20 07:07:52;;;;;;;27.20;9.95;;;;;;;3.41;88.88;100312.66;4951099;28;20034;-62
2021/12/20 07:10:17;;;;;;;38.75;11.48;;;;;;;3.35;89.77;100312.53;4945884;28;20781;-62
2021/12/20 07:12:43;;;;;;;28.25;11.90;;;;;;;3.34;92.23;100310.84;4955914;28;20427;-61
2021/12/20 07:15:11;;;;;;;37.25;10.90;;;;;;;3.36;92.52;100314.97;4948940;28;20302;-62
2021/12/20 07:17:37;;;;;;;27.13;10.35;;;;;;;3.28;92.35;100311.53;4953754;28;20485;-62
2021/12/20 07:20:03;;;;;;;32.47;10.55;;;;;;;3.33;93.29;100309.22;4948549;28;20027;-62
2021/12/20 07:22:29;;;;;;;30.17;11.35;;;;;;;3.32;92.93;100312.84;4955376;28;20065;-61
2021/12/20 07:24:54;;;;;;;32.17;11.30;;;;;;;3.28;92.93;100316.84;4951126;28;20023;-62
2021/12/20 07:27:20;;;;;;;38.40;11.38;;;;;;;3.30;93.12;100320.97;4954247;28;20069;-62
2021/12/20 07:29:45;;;;;;;27.05;11.25;;;;;;;3.39;92.53;100311.16;4955200;28;20108;-61
2021/12/20 07:32:14;;;;;;;32.20;10.77;;;;;;;3.31;93.00;100319.16;4953509;28;20380;-61
2021/12/20 07:34:39;;;;;;;29.25;11.38;;;;;;;3.29;93.58;100313.19;4951972;28;20046;-62
2021/12/20 07:37:05;;;;;;;34.47;14.45;;;;;;;3.32;93.14;100318.13;4948942;28;20039;-62
2021/12/20 07:39:30;;;;;;;42.25;14.63;;;;;;;3.35;93.51;100320.47;4948165;28;20641;-61
2021/12/20 07:41:56;;;;;;;44.42;15.15;;;;;;;3.33;93.45;100320.63;4948769;28;20043;-61
2021/12/20 07:44:22;;;;;;;37.05;13.65;;;;;;;3.33;93.38;100325.94;4948380;28;20123;-62
2021/12/20 07:46:47;;;;;;;36.42;14.38;;;;;;;3.32;93.71;100326.09;4952571;28;20893;-62
2021/12/20 07:49:12;;;;;;;41.00;13.02;;;;;;;3.30;93.93;100331.56;4947368;28;20027;-61
2021/12/20 07:51:38;;;;;;;34.47;12.10;;;;;;;3.27;94.15;100334.56;4952333;28;20344;-60
2021/12/20 07:54:03;;;;;;;44.60;15.85;;;;;;;3.28;93.55;100333.56;4952224;28;20089;-62
2021/12/20 07:56:29;;;;;;;40.58;15.18;;;;;;;3.32;93.64;100328.72;4950602;28;20509;-60
2021/12/20 07:58:54;;;;;;;47.05;15.07;;;;;;;3.30;93.63;100336.06;4952845;28;20485;-62
2021/12/20 08:01:19;;;;;;;60.38;17.27;;;;;;;3.37;93.12;100342.31;4952350;28;20573;-60
2021/12/20 08:03:45;;;;;;;33.70;14.10;;;;;;;3.49;93.08;100348.91;4952282;28;20038;-60
2021/12/20 08:06:11;;;;;;;39.53;13.18;;;;;;;3.46;92.82;100342.13;4944537;28;20058;-62
2021/12/20 08:08:36;;;;;;;40.25;13.80;;;;;;;3.53;94.45;100342.28;4949012;28;20038;-60
2021/12/20 08:11:02;;;;;;;35.85;15.07;;;;;;;3.51;92.71;100354.88;4950927;28;20099;-60
2021/12/20 08:13:27;;;;;;;43.92;14.07;;;;;;;3.65;95.37;100346.25;4946531;28;20407;-62
2021/12/20 08:15:53;;;;;;;45.45;14.70;;;;;;;3.60;93.08;100350.41;4945848;28;20701;-62
2021/12/20 08:18:20;;;;;;;41.67;12.43;;;;;;;3.60;94.89;100347.75;4951328;28;20058;-60
2021/12/20 08:20:45;;;;;;;33.40;12.65;;;;;;;3.64;94.10;100355.19;4951737;28;20046;-60
2021/12/20 08:23:11;;;;;;;42.10;11.82;;;;;;;3.61;92.78;100357.34;4955034;28;20069;-60
2021/12/20 08:25:39;;;;;;;33.83;11.30;;;;;;;3.53;91.83;100358.19;4949547;28;20545;-61
2021/12/20 08:28:05;;;;;;;27.70;11.88;;;;;;;3.52;91.67;100361.84;4936929;28;20031;-61
2021/12/20 08:30:30;;;;;;;37.30;12.40;;;;;;;3.58;91.17;100347.91;4951706;28;20417;-61
2021/12/20 08:32:56;;;;;;;33.90;9.80;;;;;;;3.51;90.96;100360.19;4948374;28;20034;-63
2021/12/20 08:35:21;;;;;;;27.25;9.57;;;;;;;3.49;90.28;100361.34;4947995;28;20054;-61
2021/12/20 08:37:47;;;;;;;27.98;10.02;;;;;;;3.45;89.72;100361.69;4955542;28;20030;-61
2021/12/20 08:40:14;;;;;;;39.40;9.77;;;;;;;3.49;88.98;100362.16;4951506;28;20031;-61
2021/12/20 08:42:39;;;;;;;30.17;9.90;;;;;;;3.53;88.13;100358.19;4954472;28;20034;-61
2021/12/20 08:45:05;;;;;;;25.08;7.85;;;;;;;3.50;86.66;100363.84;4950606;28;20031;-60
2021/12/20 08:47:32;;;;;;;34.92;8.90;;;;;;;3.48;86.01;100367.66;4950370;28;20382;-60
2021/12/20 08:50:00;;;;;;;22.23;7.78;;;;;;;3.59;84.68;100362.81;4953882;28;20037;-60
2021/12/20 08:52:26;;;;;;;30.20;9.32;;;;;;;3.61;85.09;100370.59;4953090;28;20046;-60
2021/12/20 08:54:51;;;;;;;26.33;7.20;;;;;;;3.61;84.01;100366.13;4955126;28;20034;-61
2021/12/20 08:57:17;;;;;;;17.73;6.95;;;;;;;3.59;84.02;100367.28;4953644;28;20046;-60
2021/12/20 08:59:42;;;;;;;22.48;6.93;;;;;;;3.56;84.12;100379.06;4958203;28;20327;-60
2021/12/20 09:02:09;;;;;;;30.10;6.82;;;;;;;3.64;84.55;100365.81;4953696;28;20051;-60
2021/12/20 09:04:35;;;;;;;23.98;6.90;;;;;;;3.70;83.83;100363.47;4957718;28;20070;-61
2021/12/20 09:07:00;;;;;;;23.80;6.65;;;;;;;3.82;83.19;100372.69;4957079;28;20043;-60
2021/12/20 09:09:26;;;;;;;13.77;6.75;;;;;;;3.74;83.13;100380.69;4955709;28;20046;-62
2021/12/20 09:11:51;;;;;;;27.17;7.40;;;;;;;3.79;82.96;100379.16;4951742;28;20497;-62
2021/12/20 09:14:17;;;;;;;22.63;6.47;;;;;;;3.90;82.40;100378.00;4954795;28;20097;-62
2021/12/20 09:16:42;;;;;;;20.50;7.00;;;;;;;3.91;82.21;100379.63;4948973;28;20047;-62
2021/12/20 09:19:07;;;;;;;26.73;6.38;;;;;;;3.89;81.85;100378.97;4943162;28;20035;-61
2021/12/20 09:21:34;;;;;;;24.48;7.18;;;;;;;4.05;82.56;100394.03;4953950;28;20510;-61
2021/12/20 09:24:00;;;;;;;27.52;6.72;;;;;;;4.07;82.17;100398.16;4951008;28;20034;-61
2021/12/20 09:26:26;;;;;;;23.40;5.28;;;;;;;4.07;81.66;100400.81;4949291;28;20043;-61
2021/12/20 09:28:51;;;;;;;23.77;6.90;;;;;;;3.98;82.38;100396.53;4952686;28;20053;-60
2021/12/20 09:31:17;;;;;;;20.38;6.05;;;;;;;4.07;82.70;100407.94;4954042;28;20076;-61
2021/12/20 09:33:42;;;;;;;23.13;6.05;;;;;;;4.23;81.53;100402.56;4951056;28;20127;-61
2021/12/20 09:36:07;;;;;;;20.27;4.72;;;;;;;4.07;80.96;100405.31;4947975;28;20748;-60
2021/12/20 09:38:33;;;;;;;28.13;5.53;;;;;;;4.26;80.38;100409.34;4952705;28;20053;-61
2021/12/20 09:43:48;;;;;;;18.85;6.25;;;;;;;5.56;75.17;100409.47;4957852;28;20126;-61
2021/12/20 09:46:14;;;;;;;25.93;5.63;;;;;;;5.82;74.76;100404.56;4957397;28;20047;-60
2021/12/20 09:48:43;;;;;;;15.65;5.55;;;;;;;5.62;75.51;100414.06;4956132;28;20288;-60
2021/12/20 09:51:09;;;;;;;20.48;5.53;;;;;;;5.45;75.97;100412.56;4952557;28;20531;-60
2021/12/20 09:53:34;;;;;;;17.85;6.00;;;;;;;5.75;76.00;100413.44;4959629;28;20043;-61
2021/12/20 09:55:59;;;;;;;21.50;5.70;;;;;;;5.87;75.61;100419.16;4961167;28;20405;-61
2021/12/20 09:58:25;;;;;;;24.05;6.50;;;;;;;6.04;74.09;100413.50;4942289;28;20038;-61
2021/12/20 10:00:51;;;;;;;17.10;5.00;;;;;;;6.03;73.53;100414.50;4952288;28;20539;-61
2021/12/20 10:03:21;;;;;;;17.38;6.53;;;;;;;5.84;75.07;100412.34;4934648;28;20043;-61
2021/12/20 10:05:47;;;;;;;25.73;6.72;;;;;;;5.16;77.88;100414.13;4953256;28;20042;-61
2021/12/20 10:08:15;;;;;;;25.25;6.13;;;;;;;4.78;79.48;100416.72;4943783;28;20031;-61
2021/12/20 10:10:42;;;;;;;26.48;6.60;;;;;;;4.68;80.81;100418.78;4953881;28;20051;-60
2021/12/20 10:13:07;;;;;;;21.20;6.55;;;;;;;4.30;82.55;100419.47;4948863;28;20189;-61
2021/12/20 10:15:37;;;;;;;25.50;6.63;;;;;;;4.23;83.86;100417.66;4954138;28;20043;-61
2021/12/20 10:18:02;;;;;;;28.80;6.80;;;;;;;4.15;83.91;100413.22;4955606;28;20039;-63
2021/12/20 10:20:30;;;;;;;20.73;6.57;;;;;;;4.36;82.87;100406.50;4949756;28;20058;-62
2021/12/20 10:23:19;;;;;;;22.05;5.30;;;;;;;3.83;84.25;100411.50;4960876;28;20172;-62
2021/12/20 10:25:45;;;;;;;25.95;6.28;;;;;;;3.64;85.60;100417.97;4965162;28;20134;-60
2021/12/20 10:28:24;;;;;;;27.65;7.10;;;;;;;3.57;86.08;100412.53;4950471;28;20121;-61
2021/12/20 10:31:14;;;;;;;23.25;4.68;;;;;;;3.95;83.81;100410.13;4956280;28;20325;-60
2021/12/20 10:33:40;;;;;;;24.33;6.30;;;;;;;3.72;83.45;100412.69;4956551;28;20489;-63
2021/12/20 10:36:07;;;;;;;22.70;5.85;;;;;;;3.91;83.29;100414.13;4954811;28;20050;-62
2021/12/20 10:38:40;;;;;;;26.08;8.10;;;;;;;4.40;80.19;100421.09;4950671;28;20082;-62
2021/12/20 10:41:09;;;;;;;40.30;8.45;;;;;;;3.79;82.75;100412.81;4954799;28;20042;-63
2021/12/20 10:43:44;;;;;;;36.33;9.32;;;;;;;4.54;80.09;100407.91;4940312;28;20489;-62
2021/12/20 10:46:24;;;;;;;24.48;6.10;;;;;;;4.85;78.10;100407.03;4953095;28;20477;-61
2021/12/20 10:48:52;;;;;;;20.53;4.80;;;;;;;5.25;75.85;100401.63;4951427;28;20035;-61
2021/12/20 10:51:18;;;;;;;22.60;5.30;;;;;;;4.61;79.06;100407.19;4951821;28;20039;-61
2021/12/20 10:53:57;;;;;;;20.15;5.57;;;;;;;4.97;77.59;100405.63;4954812;28;20039;-61
2021/12/20 10:56:22;;;;;;;23.67;5.32;;;;;;;5.70;75.08;100405.19;4941817;28;20755;-61
2021/12/20 10:58:48;;;;;;;16.42;5.45;;;;;;;5.23;75.80;100408.94;4953367;28;20065;-61
2021/12/20 11:04:12;;;;;;;19.08;5.38;;;;;;;5.67;74.42;100406.38;4949723;28;20038;-61
2021/12/20 11:09:13;;;;;;;27.20;5.13;;;;;;;5.14;74.92;100408.16;4951692;28;20057;-61
2021/12/20 11:11:40;;;;;;;28.15;6.40;;;;;;;5.04;75.73;100399.59;4948572;28;20078;-61
2021/12/20 11:14:06;;;;;;;19.00;4.70;;;;;;;4.72;76.08;100396.19;4951287;28;20031;-60
2021/12/20 11:16:39;;;;;;;17.40;4.00;;;;;;;5.00;75.40;100393.00;4949860;28;20047;-61
2021/12/20 11:19:25;;;;;;;30.80;4.78;;;;;;;4.92;75.83;100391.25;4946307;28;20383;-60
2021/12/20 11:21:54;;;;;;;29.65;4.82;;;;;;;4.78;75.24;100398.13;4947377;28;20048;-62
2021/12/20 11:24:25;;;;;;;25.98;4.32;;;;;;;4.72;74.99;100390.88;4949017;28;20035;-63
2021/12/20 11:26:51;;;;;;;15.00;3.90;;;;;;;4.60;74.15;100387.78;4953912;28;20050;-61
2021/12/20 11:29:16;;;;;;;16.20;3.75;;;;;;;4.65;73.53;100392.56;4949398;28;20031;-60